sensor_id;sensor_type;location;lat;lon;timestamp;temperature;humidity
14531;DHT22;7352;50.866;4.366;2023-04-08T00:00:56;11.40;99.90
14531;DHT22;7352;50.866;4.366;2023-04-08T00:03:23;11.50;99.90
14531;DHT22;7352;50.866;4.366;2023-04-08T00:05:52;11.50;99.90
14531;DHT22;7352;50.866;4.366;2023-04-08T00:08:19;11.50;99.90
14531;DHT22;7352;50.866;4.366;2023-04-08T00:10:46;11.50;99.90
14531;DHT22;7352;50.866;4.366;2023-04-08T00:13:13;11.50;99.90
14531;DHT22;7352;50.866;4.366;2023-04-08T00:15:41;11.70;99.90
14531;DHT22;7352;50.866;4.366;2023-04-08T00:18:12;11.60;99.90
14531;DHT22;7352;50.866;4.366;2023-04-08T00:20:41;11.50;99.90
14531;DHT22;7352;50.866;4.366;2023-04-08T00:23:11;11.50;99.90
14531;DHT22;7352;50.866;4.366;2023-04-08T00:25:39;11.50;99.90
14531;DHT22;7352;50.866;4.366;2023-04-08T00:28:06;11.70;99.90
14531;DHT22;7352;50.866;4.366;2023-04-08T00:30:35;11.60;99.90
14531;DHT22;7352;50.866;4.366;2023-04-08T00:33:03;11.70;99.90
14531;DHT22;7352;50.866;4.366;2023-04-08T00:35:30;11.70;99.90
14531;DHT22;7352;50.866;4.366;2023-04-08T00:37:58;11.60;99.90
14531;DHT22;7352;50.866;4.366;2023-04-08T00:40:27;11.50;99.90
14531;DHT22;7352;50.866;4.366;2023-04-08T00:42:56;11.40;99.90
14531;DHT22;7352;50.866;4.366;2023-04-08T00:45:23;11.50;99.90
14531;DHT22;7352;50.866;4.366;2023-04-08T00:47:50;11.40;99.90
14531;DHT22;7352;50.866;4.366;2023-04-08T00:50:17;11.40;99.90
14531;DHT22;7352;50.866;4.366;2023-04-08T00:52:46;11.40;99.90
14531;DHT22;7352;50.866;4.366;2023-04-08T00:55:13;11.30;99.90
14531;DHT22;7352;50.866;4.366;2023-04-08T00:57:42;11.30;99.90
14531;DHT22;7352;50.866;4.366;2023-04-08T01:00:10;11.40;99.90
14531;DHT22;7352;50.866;4.366;2023-04-08T01:02:44;11.30;99.90
14531;DHT22;7352;50.866;4.366;2023-04-08T01:05:14;11.10;99.90
14531;DHT22;7352;50.866;4.366;2023-04-08T01:07:47;11.20;99.90
14531;DHT22;7352;50.866;4.366;2023-04-08T01:10:17;11.40;99.90
14531;DHT22;7352;50.866;4.366;2023-04-08T01:12:50;11.40;99.90
14531;DHT22;7352;50.866;4.366;2023-04-08T01:15:19;11.40;99.90
14531;DHT22;7352;50.866;4.366;2023-04-08T01:17:50;11.50;99.90
14531;DHT22;7352;50.866;4.366;2023-04-08T01:20:18;11.60;99.90
14531;DHT22;7352;50.866;4.366;2023-04-08T01:22:56;11.50;99.90
14531;DHT22;7352;50.866;4.366;2023-04-08T01:25:31;11.50;99.90
14531;DHT22;7352;50.866;4.366;2023-04-08T01:28:04;11.20;99.90
14531;DHT22;7352;50.866;4.366;2023-04-08T01:30:33;11.30;99.90
14531;DHT22;7352;50.866;4.366;2023-04-08T01:33:01;11.40;99.90
14531;DHT22;7352;50.866;4.366;2023-04-08T01:35:30;11.40;99.90
14531;DHT22;7352;50.866;4.366;2023-04-08T01:37:58;11.50;99.90
14531;DHT22;7352;50.866;4.366;2023-04-08T01:40:26;11.20;99.90
14531;DHT22;7352;50.866;4.366;2023-04-08T01:42:55;11.30;99.90
14531;DHT22;7352;50.866;4.366;2023-04-08T01:45:24;11.40;99.90
14531;DHT22;7352;50.866;4.366;2023-04-08T01:47:52;11.40;99.90
14531;DHT22;7352;50.866;4.366;2023-04-08T01:50:23;11.60;99.90
14531;DHT22;7352;50.866;4.366;2023-04-08T01:52:52;11.60;99.90
14531;DHT22;7352;50.866;4.366;2023-04-08T01:55:20;11.60;99.90
14531;DHT22;7352;50.866;4.366;2023-04-08T01:57:49;11.50;99.90
14531;DHT22;7352;50.866;4.366;2023-04-08T02:00:21;11.50;99.90
14531;DHT22;7352;50.866;4.366;2023-04-08T02:02:52;11.30;99.90
14531;DHT22;7352;50.866;4.366;2023-04-08T02:05:20;11.40;99.90
14531;DHT22;7352;50.866;4.366;2023-04-08T02:07:47;11.60;99.90
14531;DHT22;7352;50.866;4.366;2023-04-08T02:10:14;11.50;99.90
14531;DHT22;7352;50.866;4.366;2023-04-08T02:12:42;11.40;99.90
14531;DHT22;7352;50.866;4.366;2023-04-08T02:15:10;11.30;99.90
14531;DHT22;7352;50.866;4.366;2023-04-08T02:17:42;11.30;99.90
14531;DHT22;7352;50.866;4.366;2023-04-08T02:20:16;11.30;99.90
14531;DHT22;7352;50.866;4.366;2023-04-08T02:22:47;11.40;99.90
14531;DHT22;7352;50.866;4.366;2023-04-08T02:25:19;11.30;99.90
14531;DHT22;7352;50.866;4.366;2023-04-08T02:27:49;11.30;99.90
14531;DHT22;7352;50.866;4.366;2023-04-08T02:30:18;11.30;99.90
14531;DHT22;7352;50.866;4.366;2023-04-08T02:32:46;11.20;99.90
14531;DHT22;7352;50.866;4.366;2023-04-08T02:35:14;11.30;99.90
14531;DHT22;7352;50.866;4.366;2023-04-08T02:37:42;11.30;99.90
14531;DHT22;7352;50.866;4.366;2023-04-08T02:40:24;11.40;99.90
14531;DHT22;7352;50.866;4.366;2023-04-08T02:42:52;11.50;99.90
14531;DHT22;7352;50.866;4.366;2023-04-08T02:45:21;11.30;99.90
14531;DHT22;7352;50.866;4.366;2023-04-08T02:47:48;11.20;99.90
14531;DHT22;7352;50.866;4.366;2023-04-08T02:50:19;11.20;99.90
14531;DHT22;7352;50.866;4.366;2023-04-08T02:52:46;11.20;99.90
14531;DHT22;7352;50.866;4.366;2023-04-08T02:55:13;11.20;99.90
14531;DHT22;7352;50.866;4.366;2023-04-08T02:57:41;11.20;99.90
14531;DHT22;7352;50.866;4.366;2023-04-08T03:00:09;11.20;99.90
14531;DHT22;7352;50.866;4.366;2023-04-08T03:02:36;11.20;99.90
14531;DHT22;7352;50.866;4.366;2023-04-08T03:05:04;11.10;99.90
14531;DHT22;7352;50.866;4.366;2023-04-08T03:07:33;11.00;99.90
14531;DHT22;7352;50.866;4.366;2023-04-08T03:10:00;11.00;99.90
14531;DHT22;7352;50.866;4.366;2023-04-08T03:12:29;11.00;99.90
14531;DHT22;7352;50.866;4.366;2023-04-08T03:14:56;11.00;99.90
14531;DHT22;7352;50.866;4.366;2023-04-08T03:17:23;10.90;99.90
14531;DHT22;7352;50.866;4.366;2023-04-08T03:19:50;11.00;99.90
14531;DHT22;7352;50.866;4.366;2023-04-08T03:22:18;11.10;99.90
14531;DHT22;7352;50.866;4.366;2023-04-08T03:24:46;11.00;99.90
14531;DHT22;7352;50.866;4.366;2023-04-08T03:27:13;10.80;99.90
14531;DHT22;7352;50.866;4.366;2023-04-08T03:29:41;10.90;99.90
14531;DHT22;7352;50.866;4.366;2023-04-08T03:32:08;10.80;99.90
14531;DHT22;7352;50.866;4.366;2023-04-08T03:34:35;10.90;99.90
14531;DHT22;7352;50.866;4.366;2023-04-08T03:37:02;10.80;99.90
14531;DHT22;7352;50.866;4.366;2023-04-08T03:39:29;10.90;99.90
14531;DHT22;7352;50.866;4.366;2023-04-08T03:41:57;10.80;99.90
14531;DHT22;7352;50.866;4.366;2023-04-08T03:44:25;10.80;99.90
14531;DHT22;7352;50.866;4.366;2023-04-08T03:46:52;10.90;99.90
14531;DHT22;7352;50.866;4.366;2023-04-08T03:49:19;11.00;99.90
14531;DHT22;7352;50.866;4.366;2023-04-08T03:51:47;11.00;99.90
14531;DHT22;7352;50.866;4.366;2023-04-08T03:54:13;10.70;99.90
14531;DHT22;7352;50.866;4.366;2023-04-08T03:56:41;10.70;99.90
14531;DHT22;7352;50.866;4.366;2023-04-08T03:59:09;10.80;99.90
14531;DHT22;7352;50.866;4.366;2023-04-08T04:01:36;10.80;99.90
14531;DHT22;7352;50.866;4.366;2023-04-08T04:04:03;10.90;99.90
14531;DHT22;7352;50.866;4.366;2023-04-08T04:06:31;10.80;99.90
14531;DHT22;7352;50.866;4.366;2023-04-08T04:08:58;10.80;99.90
14531;DHT22;7352;50.866;4.366;2023-04-08T04:11:25;10.80;99.90
14531;DHT22;7352;50.866;4.366;2023-04-08T04:13:52;10.90;99.90
14531;DHT22;7352;50.866;4.366;2023-04-08T04:16:20;10.90;99.90
14531;DHT22;7352;50.866;4.366;2023-04-08T04:18:47;11.10;99.90
14531;DHT22;7352;50.866;4.366;2023-04-08T04:21:14;10.90;99.90
14531;DHT22;7352;50.866;4.366;2023-04-08T04:23:41;10.80;99.90
14531;DHT22;7352;50.866;4.366;2023-04-08T04:26:08;10.80;99.90
14531;DHT22;7352;50.866;4.366;2023-04-08T04:28:36;11.00;99.90
14531;DHT22;7352;50.866;4.366;2023-04-08T04:31:03;10.90;99.90
14531;DHT22;7352;50.866;4.366;2023-04-08T04:33:37;10.90;99.90
14531;DHT22;7352;50.866;4.366;2023-04-08T04:36:04;10.90;99.90
14531;DHT22;7352;50.866;4.366;2023-04-08T04:38:31;11.00;99.90
14531;DHT22;7352;50.866;4.366;2023-04-08T04:40:58;10.90;99.90
14531;DHT22;7352;50.866;4.366;2023-04-08T04:43:26;10.90;99.90
14531;DHT22;7352;50.866;4.366;2023-04-08T04:45:53;10.80;99.90
14531;DHT22;7352;50.866;4.366;2023-04-08T04:48:21;10.80;99.90
14531;DHT22;7352;50.866;4.366;2023-04-08T04:50:55;11.00;99.90
14531;DHT22;7352;50.866;4.366;2023-04-08T04:53:22;10.90;99.90
14531;DHT22;7352;50.866;4.366;2023-04-08T04:55:49;10.90;99.90
14531;DHT22;7352;50.866;4.366;2023-04-08T04:58:16;11.00;99.90
14531;DHT22;7352;50.866;4.366;2023-04-08T05:00:44;11.10;99.90
14531;DHT22;7352;50.866;4.366;2023-04-08T05:03:11;11.10;99.90
14531;DHT22;7352;50.866;4.366;2023-04-08T05:05:43;11.00;99.90
14531;DHT22;7352;50.866;4.366;2023-04-08T05:08:49;10.80;99.90
14531;DHT22;7352;50.866;4.366;2023-04-08T05:11:20;11.00;99.90
14531;DHT22;7352;50.866;4.366;2023-04-08T05:13:49;11.00;99.90
14531;DHT22;7352;50.866;4.366;2023-04-08T05:16:28;11.00;99.90
14531;DHT22;7352;50.866;4.366;2023-04-08T05:18:55;11.30;99.90
14531;DHT22;7352;50.866;4.366;2023-04-08T05:21:22;11.20;99.90
14531;DHT22;7352;50.866;4.366;2023-04-08T05:23:50;11.10;99.90
14531;DHT22;7352;50.866;4.366;2023-04-08T05:26:18;11.10;99.90
14531;DHT22;7352;50.866;4.366;2023-04-08T05:28:47;11.20;99.90
14531;DHT22;7352;50.866;4.366;2023-04-08T05:31:15;11.30;99.90
14531;DHT22;7352;50.866;4.366;2023-04-08T05:33:42;11.10;99.90
14531;DHT22;7352;50.866;4.366;2023-04-08T05:36:10;11.00;99.90
14531;DHT22;7352;50.866;4.366;2023-04-08T05:38:37;11.00;99.90
14531;DHT22;7352;50.866;4.366;2023-04-08T05:41:06;11.00;99.90
14531;DHT22;7352;50.866;4.366;2023-04-08T05:43:33;11.10;99.90
14531;DHT22;7352;50.866;4.366;2023-04-08T05:46:05;11.00;99.90
14531;DHT22;7352;50.866;4.366;2023-04-08T05:48:32;11.10;99.90
14531;DHT22;7352;50.866;4.366;2023-04-08T05:50:59;11.30;99.90
14531;DHT22;7352;50.866;4.366;2023-04-08T05:53:26;11.50;99.90
14531;DHT22;7352;50.866;4.366;2023-04-08T05:55:56;11.20;99.90
14531;DHT22;7352;50.866;4.366;2023-04-08T05:58:32;11.00;99.90
14531;DHT22;7352;50.866;4.366;2023-04-08T06:00:59;11.00;99.90
14531;DHT22;7352;50.866;4.366;2023-04-08T06:03:25;11.20;99.90
14531;DHT22;7352;50.866;4.366;2023-04-08T06:05:52;11.20;99.90
14531;DHT22;7352;50.866;4.366;2023-04-08T06:08:19;11.10;99.90
14531;DHT22;7352;50.866;4.366;2023-04-08T06:10:48;11.30;99.90
14531;DHT22;7352;50.866;4.366;2023-04-08T06:13:16;11.20;99.90
14531;DHT22;7352;50.866;4.366;2023-04-08T06:15:46;11.40;99.90
14531;DHT22;7352;50.866;4.366;2023-04-08T06:18:14;11.30;99.90
14531;DHT22;7352;50.866;4.366;2023-04-08T06:20:41;11.30;99.90
14531;DHT22;7352;50.866;4.366;2023-04-08T06:23:09;11.60;99.90
14531;DHT22;7352;50.866;4.366;2023-04-08T06:25:37;11.60;99.90
14531;DHT22;7352;50.866;4.366;2023-04-08T06:28:04;11.60;99.90
14531;DHT22;7352;50.866;4.366;2023-04-08T06:30:31;11.70;99.90
14531;DHT22;7352;50.866;4.366;2023-04-08T06:32:59;12.00;99.90
14531;DHT22;7352;50.866;4.366;2023-04-08T06:35:26;11.80;99.90
14531;DHT22;7352;50.866;4.366;2023-04-08T06:37:53;11.80;99.90
14531;DHT22;7352;50.866;4.366;2023-04-08T06:40:20;11.80;99.90
14531;DHT22;7352;50.866;4.366;2023-04-08T06:42:47;11.80;99.90
14531;DHT22;7352;50.866;4.366;2023-04-08T06:45:15;11.70;99.90
14531;DHT22;7352;50.866;4.366;2023-04-08T06:47:42;11.70;99.90
14531;DHT22;7352;50.866;4.366;2023-04-08T06:50:11;11.60;99.90
14531;DHT22;7352;50.866;4.366;2023-04-08T06:52:38;11.60;99.90
14531;DHT22;7352;50.866;4.366;2023-04-08T06:55:05;11.80;99.90
14531;DHT22;7352;50.866;4.366;2023-04-08T06:57:32;11.80;99.90
14531;DHT22;7352;50.866;4.366;2023-04-08T06:59:59;12.00;99.90
14531;DHT22;7352;50.866;4.366;2023-04-08T07:02:28;12.10;99.90
14531;DHT22;7352;50.866;4.366;2023-04-08T07:04:55;12.20;99.90
14531;DHT22;7352;50.866;4.366;2023-04-08T07:07:23;12.10;99.90
14531;DHT22;7352;50.866;4.366;2023-04-08T07:09:50;11.90;99.90
14531;DHT22;7352;50.866;4.366;2023-04-08T07:12:17;11.80;99.90
14531;DHT22;7352;50.866;4.366;2023-04-08T07:14:44;11.90;99.90
14531;DHT22;7352;50.866;4.366;2023-04-08T07:17:11;11.80;99.90
14531;DHT22;7352;50.866;4.366;2023-04-08T07:19:38;11.80;99.90
14531;DHT22;7352;50.866;4.366;2023-04-08T07:22:05;11.70;99.90
14531;DHT22;7352;50.866;4.366;2023-04-08T07:24:34;11.80;99.90
14531;DHT22;7352;50.866;4.366;2023-04-08T07:27:00;11.80;99.90
14531;DHT22;7352;50.866;4.366;2023-04-08T07:29:27;11.70;99.90
14531;DHT22;7352;50.866;4.366;2023-04-08T07:31:54;11.60;99.90
14531;DHT22;7352;50.866;4.366;2023-04-08T07:34:21;11.60;99.90
14531;DHT22;7352;50.866;4.366;2023-04-08T07:36:48;11.80;99.90
14531;DHT22;7352;50.866;4.366;2023-04-08T07:39:15;12.00;99.90
14531;DHT22;7352;50.866;4.366;2023-04-08T07:41:44;11.80;99.90
14531;DHT22;7352;50.866;4.366;2023-04-08T07:44:13;11.90;99.90
14531;DHT22;7352;50.866;4.366;2023-04-08T07:46:41;12.10;99.90
14531;DHT22;7352;50.866;4.366;2023-04-08T07:49:10;12.20;99.90
14531;DHT22;7352;50.866;4.366;2023-04-08T07:51:37;12.40;99.90
14531;DHT22;7352;50.866;4.366;2023-04-08T07:54:04;12.50;99.90
14531;DHT22;7352;50.866;4.366;2023-04-08T07:56:31;12.70;99.90
14531;DHT22;7352;50.866;4.366;2023-04-08T07:58:59;12.80;99.90
14531;DHT22;7352;50.866;4.366;2023-04-08T08:01:26;12.80;99.90
14531;DHT22;7352;50.866;4.366;2023-04-08T08:03:55;12.70;99.90
14531;DHT22;7352;50.866;4.366;2023-04-08T08:06:22;12.70;99.90
14531;DHT22;7352;50.866;4.366;2023-04-08T08:08:49;12.70;99.90
14531;DHT22;7352;50.866;4.366;2023-04-08T08:11:16;12.80;99.90
14531;DHT22;7352;50.866;4.366;2023-04-08T08:13:43;12.90;99.90
14531;DHT22;7352;50.866;4.366;2023-04-08T08:16:12;13.00;99.90
14531;DHT22;7352;50.866;4.366;2023-04-08T08:18:39;12.90;99.90
14531;DHT22;7352;50.866;4.366;2023-04-08T08:21:06;13.20;99.90
14531;DHT22;7352;50.866;4.366;2023-04-08T08:23:33;13.20;99.90
14531;DHT22;7352;50.866;4.366;2023-04-08T08:26:03;13.10;99.90
14531;DHT22;7352;50.866;4.366;2023-04-08T08:28:31;12.90;99.90
14531;DHT22;7352;50.866;4.366;2023-04-08T08:30:59;13.00;99.90
14531;DHT22;7352;50.866;4.366;2023-04-08T08:33:28;13.10;99.90
14531;DHT22;7352;50.866;4.366;2023-04-08T08:35:55;13.10;99.90
14531;DHT22;7352;50.866;4.366;2023-04-08T08:38:23;13.00;99.90
14531;DHT22;7352;50.866;4.366;2023-04-08T08:40:53;13.00;99.90
14531;DHT22;7352;50.866;4.366;2023-04-08T08:43:21;13.20;99.90
14531;DHT22;7352;50.866;4.366;2023-04-08T08:45:49;13.30;99.90
14531;DHT22;7352;50.866;4.366;2023-04-08T08:48:16;13.20;99.90
14531;DHT22;7352;50.866;4.366;2023-04-08T08:50:45;13.30;99.90
14531;DHT22;7352;50.866;4.366;2023-04-08T08:53:12;13.30;99.90
14531;DHT22;7352;50.866;4.366;2023-04-08T08:55:41;13.30;99.90
14531;DHT22;7352;50.866;4.366;2023-04-08T08:58:07;13.40;99.90
14531;DHT22;7352;50.866;4.366;2023-04-08T09:00:36;13.20;99.90
14531;DHT22;7352;50.866;4.366;2023-04-08T09:03:16;13.30;99.90
14531;DHT22;7352;50.866;4.366;2023-04-08T09:05:49;13.20;99.90
14531;DHT22;7352;50.866;4.366;2023-04-08T09:08:27;12.90;99.90
14531;DHT22;7352;50.866;4.366;2023-04-08T09:10:56;12.80;99.90
14531;DHT22;7352;50.866;4.366;2023-04-08T09:13:35;12.70;99.90
14531;DHT22;7352;50.866;4.366;2023-04-08T09:16:04;12.70;99.90
14531;DHT22;7352;50.866;4.366;2023-04-08T09:18:32;12.90;99.90
14531;DHT22;7352;50.866;4.366;2023-04-08T09:21:01;13.00;99.90
14531;DHT22;7352;50.866;4.366;2023-04-08T09:23:37;13.30;99.90
14531;DHT22;7352;50.866;4.366;2023-04-08T09:26:07;13.30;99.90
14531;DHT22;7352;50.866;4.366;2023-04-08T09:28:35;13.40;99.90
14531;DHT22;7352;50.866;4.366;2023-04-08T09:31:16;13.30;99.90
14531;DHT22;7352;50.866;4.366;2023-04-08T09:33:44;13.30;99.90
14531;DHT22;7352;50.866;4.366;2023-04-08T09:36:14;13.40;99.90
14531;DHT22;7352;50.866;4.366;2023-04-08T09:38:42;13.30;99.90
14531;DHT22;7352;50.866;4.366;2023-04-08T09:41:12;13.50;99.90
14531;DHT22;7352;50.866;4.366;2023-04-08T09:43:41;13.50;99.90
14531;DHT22;7352;50.866;4.366;2023-04-08T09:46:14;13.30;99.90
14531;DHT22;7352;50.866;4.366;2023-04-08T09:48:48;13.60;99.90
14531;DHT22;7352;50.866;4.366;2023-04-08T09:51:18;13.80;99.90
14531;DHT22;7352;50.866;4.366;2023-04-08T09:53:47;13.80;99.90
14531;DHT22;7352;50.866;4.366;2023-04-08T09:56:16;13.80;99.90
14531;DHT22;7352;50.866;4.366;2023-04-08T09:58:51;13.80;99.90
14531;DHT22;7352;50.866;4.366;2023-04-08T10:01:23;13.80;99.90
14531;DHT22;7352;50.866;4.366;2023-04-08T10:03:53;13.60;99.90
14531;DHT22;7352;50.866;4.366;2023-04-08T10:06:30;13.70;99.90
14531;DHT22;7352;50.866;4.366;2023-04-08T10:09:00;13.70;99.90
14531;DHT22;7352;50.866;4.366;2023-04-08T10:11:37;13.60;99.90
14531;DHT22;7352;50.866;4.366;2023-04-08T10:14:04;13.50;99.90
14531;DHT22;7352;50.866;4.366;2023-04-08T10:16:32;13.40;99.90
14531;DHT22;7352;50.866;4.366;2023-04-08T10:18:58;13.60;99.90
14531;DHT22;7352;50.866;4.366;2023-04-08T10:21:35;13.80;99.90
14531;DHT22;7352;50.866;4.366;2023-04-08T10:24:06;14.10;99.90
14531;DHT22;7352;50.866;4.366;2023-04-08T10:26:41;14.10;99.90
14531;DHT22;7352;50.866;4.366;2023-04-08T10:29:41;14.40;99.90
14531;DHT22;7352;50.866;4.366;2023-04-08T10:32:08;14.70;99.90
14531;DHT22;7352;50.866;4.366;2023-04-08T10:34:53;15.00;99.90
14531;DHT22;7352;50.866;4.366;2023-04-08T10:37:22;15.10;99.90
14531;DHT22;7352;50.866;4.366;2023-04-08T10:39:49;15.00;99.90
14531;DHT22;7352;50.866;4.366;2023-04-08T10:42:17;15.30;99.90
14531;DHT22;7352;50.866;4.366;2023-04-08T10:44:45;15.40;99.90
14531;DHT22;7352;50.866;4.366;2023-04-08T10:47:14;15.60;99.90
14531;DHT22;7352;50.866;4.366;2023-04-08T10:49:41;15.50;99.90
14531;DHT22;7352;50.866;4.366;2023-04-08T10:52:09;15.80;99.90
14531;DHT22;7352;50.866;4.366;2023-04-08T10:54:50;15.80;99.90
14531;DHT22;7352;50.866;4.366;2023-04-08T10:57:23;15.80;99.90
14531;DHT22;7352;50.866;4.366;2023-04-08T10:59:52;16.00;99.90
14531;DHT22;7352;50.866;4.366;2023-04-08T11:02:22;16.00;99.90
14531;DHT22;7352;50.866;4.366;2023-04-08T11:04:58;15.90;99.90
14531;DHT22;7352;50.866;4.366;2023-04-08T11:07:25;16.00;99.90
14531;DHT22;7352;50.866;4.366;2023-04-08T11:10:02;15.90;99.90
14531;DHT22;7352;50.866;4.366;2023-04-08T11:12:49;15.90;99.90
14531;DHT22;7352;50.866;4.366;2023-04-08T11:15:19;16.00;99.90
14531;DHT22;7352;50.866;4.366;2023-04-08T11:17:53;16.00;99.90
14531;DHT22;7352;50.866;4.366;2023-04-08T11:20:22;16.00;99.90
14531;DHT22;7352;50.866;4.366;2023-04-08T11:22:49;16.00;99.90
14531;DHT22;7352;50.866;4.366;2023-04-08T11:25:22;15.90;99.90
14531;DHT22;7352;50.866;4.366;2023-04-08T11:27:50;15.50;99.90
14531;DHT22;7352;50.866;4.366;2023-04-08T11:30:17;15.50;99.90
14531;DHT22;7352;50.866;4.366;2023-04-08T11:32:45;15.30;99.90
14531;DHT22;7352;50.866;4.366;2023-04-08T11:35:15;15.20;99.90
14531;DHT22;7352;50.866;4.366;2023-04-08T11:37:43;15.00;99.90
14531;DHT22;7352;50.866;4.366;2023-04-08T11:40:12;15.00;99.90
14531;DHT22;7352;50.866;4.366;2023-04-08T11:42:41;14.60;99.90
14531;DHT22;7352;50.866;4.366;2023-04-08T11:45:11;14.50;99.90
14531;DHT22;7352;50.866;4.366;2023-04-08T11:47:39;14.50;99.90
14531;DHT22;7352;50.866;4.366;2023-04-08T11:50:07;14.60;99.90
14531;DHT22;7352;50.866;4.366;2023-04-08T11:52:42;14.70;99.90
14531;DHT22;7352;50.866;4.366;2023-04-08T11:55:09;14.90;99.90
14531;DHT22;7352;50.866;4.366;2023-04-08T11:57:37;14.90;99.90
14531;DHT22;7352;50.866;4.366;2023-04-08T12:00:07;14.90;99.90
14531;DHT22;7352;50.866;4.366;2023-04-08T12:02:34;15.00;99.90
14531;DHT22;7352;50.866;4.366;2023-04-08T12:05:01;14.80;99.90
14531;DHT22;7352;50.866;4.366;2023-04-08T12:07:28;15.00;99.90
14531;DHT22;7352;50.866;4.366;2023-04-08T12:09:55;15.40;99.90
14531;DHT22;7352;50.866;4.366;2023-04-08T12:12:23;15.70;99.90
14531;DHT22;7352;50.866;4.366;2023-04-08T12:14:50;16.00;99.90
14531;DHT22;7352;50.866;4.366;2023-04-08T12:17:18;16.10;99.90
14531;DHT22;7352;50.866;4.366;2023-04-08T12:19:46;16.30;99.90
14531;DHT22;7352;50.866;4.366;2023-04-08T12:22:13;16.20;99.90
14531;DHT22;7352;50.866;4.366;2023-04-08T12:24:41;16.30;99.90
14531;DHT22;7352;50.866;4.366;2023-04-08T12:27:08;16.30;99.90
14531;DHT22;7352;50.866;4.366;2023-04-08T12:29:35;16.30;99.90
14531;DHT22;7352;50.866;4.366;2023-04-08T12:32:02;16.50;99.90
14531;DHT22;7352;50.866;4.366;2023-04-08T12:34:32;16.70;99.90
14531;DHT22;7352;50.866;4.366;2023-04-08T12:36:59;16.90;99.90
14531;DHT22;7352;50.866;4.366;2023-04-08T12:39:27;16.90;99.90
14531;DHT22;7352;50.866;4.366;2023-04-08T12:41:54;16.70;99.90
14531;DHT22;7352;50.866;4.366;2023-04-08T12:44:21;16.90;99.90
14531;DHT22;7352;50.866;4.366;2023-04-08T12:46:48;17.00;99.90
14531;DHT22;7352;50.866;4.366;2023-04-08T12:49:16;17.10;99.90
14531;DHT22;7352;50.866;4.366;2023-04-08T12:51:45;17.10;99.90
14531;DHT22;7352;50.866;4.366;2023-04-08T12:54:12;17.10;99.90
14531;DHT22;7352;50.866;4.366;2023-04-08T12:56:44;17.20;99.70
14531;DHT22;7352;50.866;4.366;2023-04-08T12:59:11;16.70;99.90
14531;DHT22;7352;50.866;4.366;2023-04-08T13:01:39;17.00;99.90
14531;DHT22;7352;50.866;4.366;2023-04-08T13:04:07;17.10;99.60
14531;DHT22;7352;50.866;4.366;2023-04-08T13:06:35;17.40;99.50
14531;DHT22;7352;50.866;4.366;2023-04-08T13:09:03;17.50;97.80
14531;DHT22;7352;50.866;4.366;2023-04-08T13:11:30;17.80;97.90
14531;DHT22;7352;50.866;4.366;2023-04-08T13:13:59;17.50;97.20
14531;DHT22;7352;50.866;4.366;2023-04-08T13:16:27;17.60;97.20
14531;DHT22;7352;50.866;4.366;2023-04-08T13:18:54;17.70;97.10
14531;DHT22;7352;50.866;4.366;2023-04-08T13:21:21;17.80;96.00
14531;DHT22;7352;50.866;4.366;2023-04-08T13:23:48;18.00;96.40
14531;DHT22;7352;50.866;4.366;2023-04-08T13:26:17;17.30;96.50
14531;DHT22;7352;50.866;4.366;2023-04-08T13:28:44;17.20;97.30
14531;DHT22;7352;50.866;4.366;2023-04-08T13:31:11;17.40;97.40
14531;DHT22;7352;50.866;4.366;2023-04-08T13:33:39;17.80;96.90
14531;DHT22;7352;50.866;4.366;2023-04-08T13:36:07;17.80;96.70
14531;DHT22;7352;50.866;4.366;2023-04-08T13:38:34;17.90;96.90
14531;DHT22;7352;50.866;4.366;2023-04-08T13:41:02;17.80;97.40
14531;DHT22;7352;50.866;4.366;2023-04-08T13:43:32;17.60;97.10
14531;DHT22;7352;50.866;4.366;2023-04-08T13:46:00;17.40;97.50
14531;DHT22;7352;50.866;4.366;2023-04-08T13:48:34;17.30;98.10
14531;DHT22;7352;50.866;4.366;2023-04-08T13:51:03;17.30;97.70
14531;DHT22;7352;50.866;4.366;2023-04-08T13:53:35;17.40;97.90
14531;DHT22;7352;50.866;4.366;2023-04-08T13:56:18;17.50;97.10
14531;DHT22;7352;50.866;4.366;2023-04-08T13:59:00;17.50;96.10
14531;DHT22;7352;50.866;4.366;2023-04-08T14:01:29;17.10;96.80
14531;DHT22;7352;50.866;4.366;2023-04-08T14:03:58;17.20;96.90
14531;DHT22;7352;50.866;4.366;2023-04-08T14:06:26;17.40;96.90
14531;DHT22;7352;50.866;4.366;2023-04-08T14:09:05;17.30;97.30
14531;DHT22;7352;50.866;4.366;2023-04-08T14:11:55;17.30;97.50
14531;DHT22;7352;50.866;4.366;2023-04-08T14:14:27;17.60;97.30
14531;DHT22;7352;50.866;4.366;2023-04-08T14:17:01;17.90;97.40
14531;DHT22;7352;50.866;4.366;2023-04-08T14:19:31;18.40;96.60
14531;DHT22;7352;50.866;4.366;2023-04-08T14:21:58;18.50;96.30
14531;DHT22;7352;50.866;4.366;2023-04-08T14:24:25;18.70;96.00
14531;DHT22;7352;50.866;4.366;2023-04-08T14:26:54;18.80;96.30
14531;DHT22;7352;50.866;4.366;2023-04-08T14:29:22;18.90;96.20
14531;DHT22;7352;50.866;4.366;2023-04-08T14:31:51;18.70;95.50
14531;DHT22;7352;50.866;4.366;2023-04-08T14:34:19;18.40;95.90
14531;DHT22;7352;50.866;4.366;2023-04-08T14:36:46;18.20;96.00
14531;DHT22;7352;50.866;4.366;2023-04-08T14:39:14;18.00;96.20
14531;DHT22;7352;50.866;4.366;2023-04-08T14:41:42;17.80;95.30
14531;DHT22;7352;50.866;4.366;2023-04-08T14:44:09;17.70;95.40
14531;DHT22;7352;50.866;4.366;2023-04-08T14:46:36;17.50;95.80
14531;DHT22;7352;50.866;4.366;2023-04-08T14:49:05;17.20;96.80
14531;DHT22;7352;50.866;4.366;2023-04-08T14:51:35;17.10;97.80
14531;DHT22;7352;50.866;4.366;2023-04-08T14:54:03;16.90;97.90
14531;DHT22;7352;50.866;4.366;2023-04-08T14:56:30;17.10;98.40
14531;DHT22;7352;50.866;4.366;2023-04-08T14:58:59;17.00;98.60
14531;DHT22;7352;50.866;4.366;2023-04-08T15:01:26;17.10;98.40
14531;DHT22;7352;50.866;4.366;2023-04-08T15:03:56;17.50;97.90
14531;DHT22;7352;50.866;4.366;2023-04-08T15:06:25;18.00;97.10
14531;DHT22;7352;50.866;4.366;2023-04-08T15:08:53;18.40;95.60
14531;DHT22;7352;50.866;4.366;2023-04-08T15:11:20;18.60;94.60
14531;DHT22;7352;50.866;4.366;2023-04-08T15:13:48;19.00;94.30
14531;DHT22;7352;50.866;4.366;2023-04-08T15:16:18;19.60;93.50
14531;DHT22;7352;50.866;4.366;2023-04-08T15:18:47;20.00;92.30
14531;DHT22;7352;50.866;4.366;2023-04-08T15:21:14;20.00;91.30
14531;DHT22;7352;50.866;4.366;2023-04-08T15:23:43;19.70;91.20
14531;DHT22;7352;50.866;4.366;2023-04-08T15:26:10;19.50;92.20
14531;DHT22;7352;50.866;4.366;2023-04-08T15:28:37;19.10;92.20
14531;DHT22;7352;50.866;4.366;2023-04-08T15:31:05;19.00;92.40
14531;DHT22;7352;50.866;4.366;2023-04-08T15:33:32;18.80;92.30
14531;DHT22;7352;50.866;4.366;2023-04-08T15:35:59;18.60;92.70
14531;DHT22;7352;50.866;4.366;2023-04-08T15:38:28;18.40;93.00
14531;DHT22;7352;50.866;4.366;2023-04-08T15:40:59;18.30;93.40
14531;DHT22;7352;50.866;4.366;2023-04-08T15:43:26;18.10;93.50
14531;DHT22;7352;50.866;4.366;2023-04-08T15:45:54;18.20;93.60
14531;DHT22;7352;50.866;4.366;2023-04-08T15:48:23;18.20;94.30
14531;DHT22;7352;50.866;4.366;2023-04-08T15:50:50;18.00;93.60
14531;DHT22;7352;50.866;4.366;2023-04-08T15:53:17;18.20;93.40
14531;DHT22;7352;50.866;4.366;2023-04-08T15:55:46;17.90;93.50